sensor_id;sensor_type;location;lat;lon;timestamp;P1;durP1;ratioP1;P2;durP2;ratioP2
45734;SDS011;31446;49.632;8.328;2022-10-31T00:08:07;21.20;;;7.28;;
45734;SDS011;31446;49.632;8.328;2022-10-31T00:23:13;22.08;;;7.60;;
45734;SDS011;31446;49.632;8.328;2022-10-31T00:38:20;15.35;;;6.38;;
45734;SDS011;31446;49.632;8.328;2022-10-31T00:53:26;12.48;;;5.93;;
45734;SDS011;31446;49.632;8.328;2022-10-31T01:08:33;16.67;;;6.18;;
45734;SDS011;31446;49.632;8.328;2022-10-31T01:23:40;14.70;;;5.78;;
45734;SDS011;31446;49.632;8.328;2022-10-31T01:38:47;11.02;;;5.97;;
45734;SDS011;31446;49.632;8.328;2022-10-31T01:53:54;71.47;;;32.47;;
45734;SDS011;31446;49.632;8.328;2022-10-31T02:09:03;125.15;;;53.20;;
45734;SDS011;31446;49.632;8.328;2022-10-31T02:24:28;88.15;;;40.05;;
45734;SDS011;31446;49.632;8.328;2022-10-31T02:39:51;61.35;;;28.67;;
45734;SDS011;31446;49.632;8.328;2022-10-31T02:55:12;43.90;;;21.33;;
45734;SDS011;31446;49.632;8.328;2022-10-31T03:10:35;44.38;;;19.65;;
45734;SDS011;31446;49.632;8.328;2022-10-31T03:25:46;50.40;;;19.70;;
45734;SDS011;31446;49.632;8.328;2022-10-31T03:40:53;33.28;;;15.52;;
45734;SDS011;31446;49.632;8.328;2022-10-31T03:56:05;22.90;;;12.40;;
45734;SDS011;31446;49.632;8.328;2022-10-31T04:11:18;19.10;;;9.32;;
45734;SDS011;31446;49.632;8.328;2022-10-31T04:26:29;21.35;;;8.80;;
45734;SDS011;31446;49.632;8.328;2022-10-31T04:41:35;26.98;;;9.52;;
45734;SDS011;31446;49.632;8.328;2022-10-31T04:56:42;17.10;;;7.38;;
45734;SDS011;31446;49.632;8.328;2022-10-31T05:11:48;17.55;;;9.13;;
45734;SDS011;31446;49.632;8.328;2022-10-31T05:26:54;22.42;;;8.93;;
45734;SDS011;31446;49.632;8.328;2022-10-31T05:42:01;23.33;;;9.75;;
45734;SDS011;31446;49.632;8.328;2022-10-31T05:57:07;22.60;;;10.38;;
45734;SDS011;31446;49.632;8.328;2022-10-31T06:12:14;16.42;;;8.77;;
45734;SDS011;31446;49.632;8.328;2022-10-31T06:27:20;17.77;;;9.50;;
45734;SDS011;31446;49.632;8.328;2022-10-31T06:42:27;21.50;;;9.70;;
45734;SDS011;31446;49.632;8.328;2022-10-31T06:57:34;17.33;;;7.70;;
45734;SDS011;31446;49.632;8.328;2022-10-31T07:12:40;17.85;;;7.43;;
45734;SDS011;31446;49.632;8.328;2022-10-31T07:27:47;19.50;;;7.80;;
45734;SDS011;31446;49.632;8.328;2022-10-31T07:42:53;23.30;;;10.00;;
45734;SDS011;31446;49.632;8.328;2022-10-31T07:58:00;16.20;;;9.27;;
45734;SDS011;31446;49.632;8.328;2022-10-31T08:13:09;20.02;;;10.20;;
45734;SDS011;31446;49.632;8.328;2022-10-31T08:28:16;21.92;;;9.23;;
45734;SDS011;31446;49.632;8.328;2022-10-31T08:43:23;27.17;;;9.88;;
45734;SDS011;31446;49.632;8.328;2022-10-31T08:58:32;17.25;;;9.88;;
45734;SDS011;31446;49.632;8.328;2022-10-31T09:13:39;29.08;;;9.50;;
45734;SDS011;31446;49.632;8.328;2022-10-31T09:28:45;25.13;;;10.35;;
45734;SDS011;31446;49.632;8.328;2022-10-31T09:43:53;29.92;;;9.13;;
45734;SDS011;31446;49.632;8.328;2022-10-31T09:59:14;23.48;;;9.70;;
45734;SDS011;31446;49.632;8.328;2022-10-31T10:14:38;17.92;;;9.95;;
45734;SDS011;31446;49.632;8.328;2022-10-31T10:30:00;26.15;;;9.85;;
45734;SDS011;31446;49.632;8.328;2022-10-31T10:45:13;19.15;;;9.23;;
45734;SDS011;31446;49.632;8.328;2022-10-31T11:00:34;26.10;;;9.82;;
45734;SDS011;31446;49.632;8.328;2022-10-31T11:15:51;21.38;;;8.80;;
45734;SDS011;31446;49.632;8.328;2022-10-31T11:31:05;24.65;;;9.10;;
45734;SDS011;31446;49.632;8.328;2022-10-31T11:46:14;21.55;;;9.48;;
45734;SDS011;31446;49.632;8.328;2022-10-31T12:01:26;21.80;;;10.45;;
45734;SDS011;31446;49.632;8.328;2022-10-31T12:16:36;16.08;;;8.18;;
45734;SDS011;31446;49.632;8.328;2022-10-31T12:31:52;20.50;;;8.57;;
45734;SDS011;31446;49.632;8.328;2022-10-31T12:47:12;18.08;;;7.60;;
45734;SDS011;31446;49.632;8.328;2022-10-31T13:02:51;27.65;;;8.10;;
45734;SDS011;31446;49.632;8.328;2022-10-31T13:18:03;17.83;;;7.50;;
45734;SDS011;31446;49.632;8.328;2022-10-31T13:33:16;24.65;;;7.40;;
45734;SDS011;31446;49.632;8.328;2022-10-31T13:48:38;21.63;;;7.50;;
45734;SDS011;31446;49.632;8.328;2022-10-31T14:03:47;17.10;;;8.18;;
45734;SDS011;31446;49.632;8.328;2022-10-31T14:19:04;17.92;;;7.53;;
45734;SDS011;31446;49.632;8.328;2022-10-31T14:34:22;17.52;;;7.53;;
45734;SDS011;31446;49.632;8.328;2022-10-31T14:49:37;24.58;;;7.00;;
45734;SDS011;31446;49.632;8.328;2022-10-31T15:05:03;17.83;;;8.48;;
45734;SDS011;31446;49.632;8.328;2022-10-31T15:20:14;14.40;;;7.35;;
45734;SDS011;31446;49.632;8.328;2022-10-31T15:35:26;21.17;;;7.68;;
45734;SDS011;31446;49.632;8.328;2022-10-31T15:50:34;29.70;;;8.68;;
45734;SDS011;31446;49.632;8.328;2022-10-31T16:05:46;16.85;;;8.40;;
45734;SDS011;31446;49.632;8.328;2022-10-31T16:20:54;22.67;;;8.05;;
45734;SDS011;31446;49.632;8.328;2022-10-31T16:51:40;23.23;;;10.57;;
45734;SDS011;31446;49.632;8.328;2022-10-31T17:06:47;24.38;;;11.38;;
45734;SDS011;31446;49.632;8.328;2022-10-31T17:21:53;30.00;;;12.13;;
45734;SDS011;31446;49.632;8.328;2022-10-31T17:36:59;25.25;;;12.77;;
45734;SDS011;31446;49.632;8.328;2022-10-31T17:52:05;29.98;;;13.35;;
45734;SDS011;31446;49.632;8.328;2022-10-31T18:07:12;41.67;;;18.02;;
45734;SDS011;31446;49.632;8.328;2022-10-31T18:22:20;31.45;;;14.52;;
45734;SDS011;31446;49.632;8.328;2022-10-31T18:37:27;33.88;;;16.50;;
45734;SDS011;31446;49.632;8.328;2022-10-31T18:52:33;36.63;;;15.95;;
45734;SDS011;31446;49.632;8.328;2022-10-31T19:07:39;42.95;;;17.83;;
45734;SDS011;31446;49.632;8.328;2022-10-31T19:22:45;31.02;;;18.58;;
45734;SDS011;31446;49.632;8.328;2022-10-31T19:37:51;32.63;;;19.00;;
45734;SDS011;31446;49.632;8.328;2022-10-31T19:52:57;41.50;;;20.02;;
45734;SDS011;31446;49.632;8.328;2022-10-31T20:08:03;46.53;;;23.35;;
45734;SDS011;31446;49.632;8.328;2022-10-31T20:23:10;42.20;;;21.83;;
45734;SDS011;31446;49.632;8.328;2022-10-31T20:38:16;41.25;;;20.38;;
45734;SDS011;31446;49.632;8.328;2022-10-31T20:53:22;36.50;;;17.77;;
45734;SDS011;31446;49.632;8.328;2022-10-31T21:08:28;32.40;;;17.67;;
45734;SDS011;31446;49.632;8.328;2022-10-31T21:23:35;36.25;;;17.80;;
45734;SDS011;31446;49.632;8.328;2022-10-31T21:38:42;34.40;;;19.30;;
45734;SDS011;31446;49.632;8.328;2022-10-31T21:53:48;42.72;;;19.83;;
45734;SDS011;31446;49.632;8.328;2022-10-31T22:09:07;49.45;;;21.50;;
45734;SDS011;31446;49.632;8.328;2022-10-31T22:24:16;36.05;;;20.27;;
45734;SDS011;31446;49.632;8.328;2022-10-31T22:39:22;50.67;;;22.48;;
45734;SDS011;31446;49.632;8.328;2022-10-31T22:54:28;43.28;;;21.85;;
45734;SDS011;31446;49.632;8.328;2022-10-31T23:09:35;33.75;;;21.20;;
45734;SDS011;31446;49.632;8.328;2022-10-31T23:24:43;40.03;;;22.42;;
45734;SDS011;31446;49.632;8.328;2022-10-31T23:39:50;38.85;;;22.65;;
45734;SDS011;31446;49.632;8.328;2022-10-31T23:54:57;36.33;;;19.77;;
